sensor_id;sensor_type;location;lat;lon;timestamp;P1;durP1;ratioP1;P2;durP2;ratioP2
4724;SDS011;2376;53.544;10.226;2023-07-22T00:01:49;4.30;;;3.90;;
4724;SDS011;2376;53.544;10.226;2023-07-22T00:04:16;4.40;;;4.00;;
4724;SDS011;2376;53.544;10.226;2023-07-22T00:06:42;4.80;;;4.43;;
4724;SDS011;2376;53.544;10.226;2023-07-22T00:09:10;4.43;;;4.13;;
4724;SDS011;2376;53.544;10.226;2023-07-22T00:11:37;4.90;;;4.20;;
4724;SDS011;2376;53.544;10.226;2023-07-22T00:14:04;4.37;;;4.00;;
4724;SDS011;2376;53.544;10.226;2023-07-22T00:16:31;5.40;;;5.00;;
4724;SDS011;2376;53.544;10.226;2023-07-22T00:18:58;4.40;;;4.10;;
4724;SDS011;2376;53.544;10.226;2023-07-22T00:21:25;5.90;;;5.40;;
4724;SDS011;2376;53.544;10.226;2023-07-22T00:23:53;5.03;;;4.67;;
4724;SDS011;2376;53.544;10.226;2023-07-22T00:26:21;5.27;;;4.87;;
4724;SDS011;2376;53.544;10.226;2023-07-22T00:28:48;6.13;;;5.60;;
4724;SDS011;2376;53.544;10.226;2023-07-22T00:31:14;5.13;;;4.73;;
4724;SDS011;2376;53.544;10.226;2023-07-22T00:33:41;5.80;;;5.20;;
4724;SDS011;2376;53.544;10.226;2023-07-22T00:36:08;6.13;;;5.53;;
4724;SDS011;2376;53.544;10.226;2023-07-22T00:38:35;6.10;;;4.50;;
4724;SDS011;2376;53.544;10.226;2023-07-22T00:41:01;6.17;;;5.67;;
4724;SDS011;2376;53.544;10.226;2023-07-22T00:43:31;6.17;;;5.53;;
4724;SDS011;2376;53.544;10.226;2023-07-22T00:45:57;6.40;;;5.83;;
4724;SDS011;2376;53.544;10.226;2023-07-22T00:48:24;7.90;;;6.07;;
4724;SDS011;2376;53.544;10.226;2023-07-22T00:50:53;8.23;;;5.23;;
4724;SDS011;2376;53.544;10.226;2023-07-22T00:53:19;6.07;;;5.20;;
4724;SDS011;2376;53.544;10.226;2023-07-22T00:55:46;6.07;;;5.50;;
4724;SDS011;2376;53.544;10.226;2023-07-22T00:58:13;8.67;;;5.40;;
4724;SDS011;2376;53.544;10.226;2023-07-22T01:00:42;5.73;;;5.10;;
4724;SDS011;2376;53.544;10.226;2023-07-22T01:03:09;6.60;;;5.30;;
4724;SDS011;2376;53.544;10.226;2023-07-22T01:05:35;6.80;;;5.70;;
4724;SDS011;2376;53.544;10.226;2023-07-22T01:08:04;6.33;;;5.73;;
4724;SDS011;2376;53.544;10.226;2023-07-22T01:10:31;8.90;;;5.67;;
4724;SDS011;2376;53.544;10.226;2023-07-22T01:12:58;7.53;;;6.53;;
4724;SDS011;2376;53.544;10.226;2023-07-22T01:15:25;7.10;;;6.23;;
4724;SDS011;2376;53.544;10.226;2023-07-22T01:17:53;7.63;;;6.10;;
4724;SDS011;2376;53.544;10.226;2023-07-22T01:20:21;9.40;;;5.80;;
4724;SDS011;2376;53.544;10.226;2023-07-22T01:22:51;7.70;;;5.60;;
4724;SDS011;2376;53.544;10.226;2023-07-22T01:25:19;6.80;;;6.07;;
4724;SDS011;2376;53.544;10.226;2023-07-22T01:27:46;8.60;;;6.83;;
4724;SDS011;2376;53.544;10.226;2023-07-22T01:30:13;9.67;;;6.50;;
4724;SDS011;2376;53.544;10.226;2023-07-22T01:32:40;8.83;;;6.93;;
4724;SDS011;2376;53.544;10.226;2023-07-22T01:35:07;9.20;;;6.00;;
4724;SDS011;2376;53.544;10.226;2023-07-22T01:37:35;10.70;;;6.60;;
4724;SDS011;2376;53.544;10.226;2023-07-22T01:40:03;9.47;;;8.10;;
4724;SDS011;2376;53.544;10.226;2023-07-22T01:42:36;7.43;;;6.20;;
4724;SDS011;2376;53.544;10.226;2023-07-22T01:45:04;7.37;;;6.57;;
4724;SDS011;2376;53.544;10.226;2023-07-22T01:47:32;7.77;;;6.53;;
4724;SDS011;2376;53.544;10.226;2023-07-22T01:49:59;7.77;;;6.23;;
4724;SDS011;2376;53.544;10.226;2023-07-22T01:52:26;8.30;;;5.70;;
4724;SDS011;2376;53.544;10.226;2023-07-22T01:54:52;10.73;;;6.47;;
4724;SDS011;2376;53.544;10.226;2023-07-22T01:57:20;6.87;;;6.17;;
4724;SDS011;2376;53.544;10.226;2023-07-22T01:59:47;6.77;;;5.97;;
4724;SDS011;2376;53.544;10.226;2023-07-22T02:02:14;8.63;;;6.50;;
4724;SDS011;2376;53.544;10.226;2023-07-22T02:04:41;7.93;;;6.47;;
4724;SDS011;2376;53.544;10.226;2023-07-22T02:07:07;13.90;;;5.73;;
4724;SDS011;2376;53.544;10.226;2023-07-22T02:09:35;8.47;;;6.30;;
4724;SDS011;2376;53.544;10.226;2023-07-22T02:12:01;9.47;;;5.53;;
4724;SDS011;2376;53.544;10.226;2023-07-22T02:14:30;7.00;;;6.40;;
4724;SDS011;2376;53.544;10.226;2023-07-22T02:16:56;7.77;;;5.30;;
4724;SDS011;2376;53.544;10.226;2023-07-22T02:19:23;9.50;;;5.70;;
4724;SDS011;2376;53.544;10.226;2023-07-22T02:21:50;8.63;;;6.03;;
4724;SDS011;2376;53.544;10.226;2023-07-22T02:24:16;15.40;;;6.23;;
4724;SDS011;2376;53.544;10.226;2023-07-22T02:26:43;9.27;;;5.40;;
4724;SDS011;2376;53.544;10.226;2023-07-22T02:29:10;10.07;;;5.30;;
4724;SDS011;2376;53.544;10.226;2023-07-22T02:31:39;10.47;;;5.40;;
4724;SDS011;2376;53.544;10.226;2023-07-22T02:34:06;7.30;;;5.53;;
4724;SDS011;2376;53.544;10.226;2023-07-22T02:36:32;7.30;;;5.93;;
4724;SDS011;2376;53.544;10.226;2023-07-22T02:38:59;6.00;;;5.33;;
4724;SDS011;2376;53.544;10.226;2023-07-22T02:41:26;9.93;;;6.37;;
4724;SDS011;2376;53.544;10.226;2023-07-22T02:43:52;8.77;;;5.70;;
4724;SDS011;2376;53.544;10.226;2023-07-22T02:46:19;10.90;;;6.20;;
4724;SDS011;2376;53.544;10.226;2023-07-22T02:48:47;16.43;;;6.20;;
4724;SDS011;2376;53.544;10.226;2023-07-22T02:51:14;8.30;;;5.70;;
4724;SDS011;2376;53.544;10.226;2023-07-22T02:53:41;13.47;;;6.30;;
4724;SDS011;2376;53.544;10.226;2023-07-22T02:56:09;14.23;;;6.50;;
4724;SDS011;2376;53.544;10.226;2023-07-22T02:58:36;8.10;;;6.77;;
4724;SDS011;2376;53.544;10.226;2023-07-22T03:01:03;6.90;;;5.80;;
4724;SDS011;2376;53.544;10.226;2023-07-22T03:03:30;10.83;;;6.67;;
4724;SDS011;2376;53.544;10.226;2023-07-22T03:05:59;10.50;;;6.60;;
4724;SDS011;2376;53.544;10.226;2023-07-22T03:08:26;12.00;;;6.93;;
4724;SDS011;2376;53.544;10.226;2023-07-22T03:10:53;9.63;;;6.27;;
4724;SDS011;2376;53.544;10.226;2023-07-22T03:13:19;8.50;;;6.93;;
4724;SDS011;2376;53.544;10.226;2023-07-22T03:15:46;14.80;;;6.97;;
4724;SDS011;2376;53.544;10.226;2023-07-22T03:18:13;12.13;;;7.23;;
4724;SDS011;2376;53.544;10.226;2023-07-22T03:20:39;11.83;;;7.00;;
4724;SDS011;2376;53.544;10.226;2023-07-22T03:23:08;10.47;;;6.87;;
4724;SDS011;2376;53.544;10.226;2023-07-22T03:25:34;11.93;;;6.67;;
4724;SDS011;2376;53.544;10.226;2023-07-22T03:28:02;9.60;;;6.43;;
4724;SDS011;2376;53.544;10.226;2023-07-22T03:30:30;8.27;;;6.90;;
4724;SDS011;2376;53.544;10.226;2023-07-22T03:32:58;9.60;;;6.90;;
4724;SDS011;2376;53.544;10.226;2023-07-22T03:35:25;7.23;;;6.53;;
4724;SDS011;2376;53.544;10.226;2023-07-22T03:37:52;8.97;;;7.00;;
4724;SDS011;2376;53.544;10.226;2023-07-22T03:40:20;9.33;;;7.13;;
4724;SDS011;2376;53.544;10.226;2023-07-22T03:42:52;13.33;;;6.90;;
4724;SDS011;2376;53.544;10.226;2023-07-22T03:45:20;9.20;;;6.87;;
4724;SDS011;2376;53.544;10.226;2023-07-22T03:47:49;12.40;;;6.93;;
4724;SDS011;2376;53.544;10.226;2023-07-22T03:50:16;9.17;;;6.57;;
4724;SDS011;2376;53.544;10.226;2023-07-22T03:52:43;11.33;;;7.03;;
4724;SDS011;2376;53.544;10.226;2023-07-22T03:55:10;12.60;;;6.50;;
4724;SDS011;2376;53.544;10.226;2023-07-22T03:57:38;9.87;;;7.80;;
4724;SDS011;2376;53.544;10.226;2023-07-22T04:00:05;8.67;;;6.40;;
4724;SDS011;2376;53.544;10.226;2023-07-22T04:02:34;8.47;;;7.00;;
4724;SDS011;2376;53.544;10.226;2023-07-22T04:05:00;13.57;;;8.20;;
4724;SDS011;2376;53.544;10.226;2023-07-22T04:07:27;10.07;;;7.20;;
4724;SDS011;2376;53.544;10.226;2023-07-22T04:09:54;8.33;;;6.33;;
4724;SDS011;2376;53.544;10.226;2023-07-22T04:12:20;6.97;;;6.27;;
4724;SDS011;2376;53.544;10.226;2023-07-22T04:14:48;9.37;;;7.07;;
4724;SDS011;2376;53.544;10.226;2023-07-22T04:17:15;13.27;;;7.70;;
4724;SDS011;2376;53.544;10.226;2023-07-22T04:19:42;11.10;;;6.70;;
4724;SDS011;2376;53.544;10.226;2023-07-22T04:22:08;13.97;;;7.27;;
4724;SDS011;2376;53.544;10.226;2023-07-22T04:24:35;8.43;;;7.60;;
4724;SDS011;2376;53.544;10.226;2023-07-22T04:27:02;10.77;;;7.30;;
4724;SDS011;2376;53.544;10.226;2023-07-22T04:29:29;12.00;;;7.20;;
4724;SDS011;2376;53.544;10.226;2023-07-22T04:32:01;8.23;;;6.30;;
4724;SDS011;2376;53.544;10.226;2023-07-22T04:34:29;8.80;;;7.07;;
4724;SDS011;2376;53.544;10.226;2023-07-22T04:36:56;10.70;;;7.90;;
4724;SDS011;2376;53.544;10.226;2023-07-22T04:39:22;11.17;;;7.50;;
4724;SDS011;2376;53.544;10.226;2023-07-22T04:41:49;10.50;;;7.07;;
4724;SDS011;2376;53.544;10.226;2023-07-22T04:44:16;9.10;;;7.87;;
4724;SDS011;2376;53.544;10.226;2023-07-22T04:46:44;9.87;;;7.60;;
4724;SDS011;2376;53.544;10.226;2023-07-22T04:49:12;10.33;;;7.90;;
4724;SDS011;2376;53.544;10.226;2023-07-22T04:51:42;8.77;;;7.03;;
4724;SDS011;2376;53.544;10.226;2023-07-22T04:54:10;11.67;;;9.20;;
4724;SDS011;2376;53.544;10.226;2023-07-22T04:56:37;10.53;;;8.50;;
4724;SDS011;2376;53.544;10.226;2023-07-22T04:59:03;9.03;;;8.13;;
4724;SDS011;2376;53.544;10.226;2023-07-22T05:01:30;12.40;;;8.50;;
4724;SDS011;2376;53.544;10.226;2023-07-22T05:03:57;11.30;;;8.97;;
4724;SDS011;2376;53.544;10.226;2023-07-22T05:06:25;11.13;;;8.43;;
4724;SDS011;2376;53.544;10.226;2023-07-22T05:08:51;14.13;;;9.33;;
4724;SDS011;2376;53.544;10.226;2023-07-22T05:11:18;13.20;;;8.97;;
4724;SDS011;2376;53.544;10.226;2023-07-22T05:13:45;11.63;;;9.87;;
4724;SDS011;2376;53.544;10.226;2023-07-22T05:16:11;13.07;;;10.10;;
4724;SDS011;2376;53.544;10.226;2023-07-22T05:18:38;9.53;;;8.63;;
4724;SDS011;2376;53.544;10.226;2023-07-22T05:21:04;10.67;;;9.63;;
4724;SDS011;2376;53.544;10.226;2023-07-22T05:23:33;13.00;;;8.90;;
4724;SDS011;2376;53.544;10.226;2023-07-22T05:26:00;11.33;;;9.63;;
4724;SDS011;2376;53.544;10.226;2023-07-22T05:28:27;10.10;;;8.70;;
4724;SDS011;2376;53.544;10.226;2023-07-22T05:30:55;13.33;;;8.67;;
4724;SDS011;2376;53.544;10.226;2023-07-22T05:33:22;9.47;;;8.57;;
4724;SDS011;2376;53.544;10.226;2023-07-22T05:35:48;12.40;;;9.80;;
4724;SDS011;2376;53.544;10.226;2023-07-22T05:38:15;11.83;;;9.13;;
4724;SDS011;2376;53.544;10.226;2023-07-22T05:40:43;12.60;;;8.90;;
4724;SDS011;2376;53.544;10.226;2023-07-22T05:43:09;9.07;;;8.17;;
4724;SDS011;2376;53.544;10.226;2023-07-22T05:45:36;9.83;;;8.83;;
4724;SDS011;2376;53.544;10.226;2023-07-22T05:48:03;13.27;;;8.70;;
4724;SDS011;2376;53.544;10.226;2023-07-22T05:50:30;9.20;;;7.70;;
4724;SDS011;2376;53.544;10.226;2023-07-22T05:52:57;10.27;;;8.67;;
4724;SDS011;2376;53.544;10.226;2023-07-22T05:55:24;11.30;;;9.00;;
4724;SDS011;2376;53.544;10.226;2023-07-22T05:57:53;10.30;;;7.83;;
4724;SDS011;2376;53.544;10.226;2023-07-22T06:00:20;10.10;;;9.07;;
4724;SDS011;2376;53.544;10.226;2023-07-22T06:02:47;13.03;;;8.47;;
4724;SDS011;2376;53.544;10.226;2023-07-22T06:05:13;10.33;;;9.23;;
4724;SDS011;2376;53.544;10.226;2023-07-22T06:07:40;9.10;;;7.50;;
4724;SDS011;2376;53.544;10.226;2023-07-22T06:10:07;10.50;;;7.93;;
4724;SDS011;2376;53.544;10.226;2023-07-22T06:12:34;8.37;;;7.53;;
4724;SDS011;2376;53.544;10.226;2023-07-22T06:15:02;9.53;;;8.57;;
4724;SDS011;2376;53.544;10.226;2023-07-22T06:17:29;9.70;;;8.10;;
4724;SDS011;2376;53.544;10.226;2023-07-22T06:19:56;10.63;;;8.97;;
4724;SDS011;2376;53.544;10.226;2023-07-22T06:22:22;10.03;;;7.27;;
4724;SDS011;2376;53.544;10.226;2023-07-22T06:24:49;7.93;;;7.23;;
4724;SDS011;2376;53.544;10.226;2023-07-22T06:27:16;8.03;;;7.00;;
4724;SDS011;2376;53.544;10.226;2023-07-22T06:29:42;7.87;;;7.17;;
4724;SDS011;2376;53.544;10.226;2023-07-22T06:32:11;7.17;;;6.47;;
4724;SDS011;2376;53.544;10.226;2023-07-22T06:34:38;6.27;;;5.53;;
4724;SDS011;2376;53.544;10.226;2023-07-22T06:37:04;9.27;;;5.47;;
4724;SDS011;2376;53.544;10.226;2023-07-22T06:39:31;6.30;;;5.30;;
4724;SDS011;2376;53.544;10.226;2023-07-22T06:41:58;5.17;;;4.73;;
4724;SDS011;2376;53.544;10.226;2023-07-22T06:44:24;6.57;;;5.10;;
4724;SDS011;2376;53.544;10.226;2023-07-22T06:46:51;4.77;;;4.23;;
4724;SDS011;2376;53.544;10.226;2023-07-22T06:49:19;6.53;;;4.07;;
4724;SDS011;2376;53.544;10.226;2023-07-22T06:51:46;4.70;;;3.80;;
4724;SDS011;2376;53.544;10.226;2023-07-22T06:54:12;5.93;;;4.50;;
4724;SDS011;2376;53.544;10.226;2023-07-22T06:56:39;6.57;;;4.43;;
4724;SDS011;2376;53.544;10.226;2023-07-22T06:59:06;3.70;;;3.40;;
4724;SDS011;2376;53.544;10.226;2023-07-22T07:01:33;4.80;;;3.53;;
4724;SDS011;2376;53.544;10.226;2023-07-22T07:04:00;3.30;;;3.00;;
4724;SDS011;2376;53.544;10.226;2023-07-22T07:06:29;7.20;;;3.57;;
4724;SDS011;2376;53.544;10.226;2023-07-22T07:08:55;3.67;;;3.37;;
4724;SDS011;2376;53.544;10.226;2023-07-22T07:11:25;9.23;;;3.77;;
4724;SDS011;2376;53.544;10.226;2023-07-22T07:13:51;4.30;;;4.00;;
4724;SDS011;2376;53.544;10.226;2023-07-22T07:16:21;4.30;;;3.90;;
4724;SDS011;2376;53.544;10.226;2023-07-22T07:18:49;3.60;;;3.20;;
4724;SDS011;2376;53.544;10.226;2023-07-22T07:21:16;2.57;;;2.47;;
4724;SDS011;2376;53.544;10.226;2023-07-22T07:23:44;3.67;;;2.67;;
4724;SDS011;2376;53.544;10.226;2023-07-22T07:26:11;3.33;;;3.03;;
4724;SDS011;2376;53.544;10.226;2023-07-22T07:28:38;2.67;;;2.30;;
4724;SDS011;2376;53.544;10.226;2023-07-22T07:31:04;2.57;;;2.47;;
4724;SDS011;2376;53.544;10.226;2023-07-22T07:33:31;3.00;;;2.63;;
4724;SDS011;2376;53.544;10.226;2023-07-22T07:35:58;3.80;;;3.13;;
4724;SDS011;2376;53.544;10.226;2023-07-22T07:38:25;2.70;;;2.50;;
4724;SDS011;2376;53.544;10.226;2023-07-22T07:40:55;2.30;;;2.20;;
4724;SDS011;2376;53.544;10.226;2023-07-22T07:43:23;2.47;;;2.37;;
4724;SDS011;2376;53.544;10.226;2023-07-22T07:45:50;2.00;;;1.90;;
4724;SDS011;2376;53.544;10.226;2023-07-22T07:48:16;2.70;;;2.50;;
4724;SDS011;2376;53.544;10.226;2023-07-22T07:50:43;2.20;;;2.10;;
4724;SDS011;2376;53.544;10.226;2023-07-22T07:53:10;2.40;;;1.73;;
4724;SDS011;2376;53.544;10.226;2023-07-22T07:55:36;2.47;;;2.37;;
4724;SDS011;2376;53.544;10.226;2023-07-22T07:58:04;3.30;;;2.43;;
4724;SDS011;2376;53.544;10.226;2023-07-22T08:00:31;3.63;;;2.63;;
4724;SDS011;2376;53.544;10.226;2023-07-22T08:02:58;3.23;;;2.93;;
4724;SDS011;2376;53.544;10.226;2023-07-22T08:05:25;3.33;;;2.50;;
4724;SDS011;2376;53.544;10.226;2023-07-22T08:07:52;6.30;;;2.30;;
4724;SDS011;2376;53.544;10.226;2023-07-22T08:10:18;2.17;;;2.07;;
4724;SDS011;2376;53.544;10.226;2023-07-22T08:12:45;2.40;;;2.30;;
4724;SDS011;2376;53.544;10.226;2023-07-22T08:15:13;3.53;;;2.73;;
4724;SDS011;2376;53.544;10.226;2023-07-22T08:17:40;3.37;;;3.10;;
4724;SDS011;2376;53.544;10.226;2023-07-22T08:20:07;3.10;;;2.70;;
4724;SDS011;2376;53.544;10.226;2023-07-22T08:22:35;3.50;;;3.27;;
4724;SDS011;2376;53.544;10.226;2023-07-22T08:25:02;2.73;;;2.53;;
4724;SDS011;2376;53.544;10.226;2023-07-22T08:27:29;2.40;;;2.20;;
4724;SDS011;2376;53.544;10.226;2023-07-22T08:29:55;4.20;;;2.50;;
4724;SDS011;2376;53.544;10.226;2023-07-22T08:32:23;6.40;;;2.90;;
4724;SDS011;2376;53.544;10.226;2023-07-22T08:34:50;5.17;;;2.23;;
4724;SDS011;2376;53.544;10.226;2023-07-22T08:37:17;7.43;;;2.40;;
4724;SDS011;2376;53.544;10.226;2023-07-22T08:39:44;2.93;;;2.30;;
4724;SDS011;2376;53.544;10.226;2023-07-22T08:42:10;2.30;;;2.10;;
4724;SDS011;2376;53.544;10.226;2023-07-22T08:44:40;1.80;;;1.70;;
4724;SDS011;2376;53.544;10.226;2023-07-22T08:47:10;1.50;;;1.40;;
4724;SDS011;2376;53.544;10.226;2023-07-22T08:49:43;1.80;;;1.70;;
4724;SDS011;2376;53.544;10.226;2023-07-22T08:52:15;3.07;;;1.57;;
4724;SDS011;2376;53.544;10.226;2023-07-22T08:54:43;2.30;;;1.60;;
4724;SDS011;2376;53.544;10.226;2023-07-22T08:57:10;1.80;;;1.70;;
4724;SDS011;2376;53.544;10.226;2023-07-22T08:59:38;1.93;;;1.70;;
4724;SDS011;2376;53.544;10.226;2023-07-22T09:02:06;1.93;;;1.40;;
4724;SDS011;2376;53.544;10.226;2023-07-22T09:04:36;2.17;;;1.73;;
4724;SDS011;2376;53.544;10.226;2023-07-22T09:07:04;2.20;;;1.57;;
4724;SDS011;2376;53.544;10.226;2023-07-22T09:09:32;2.60;;;2.13;;
4724;SDS011;2376;53.544;10.226;2023-07-22T09:12:00;2.00;;;1.60;;
4724;SDS011;2376;53.544;10.226;2023-07-22T09:14:27;4.97;;;1.97;;
4724;SDS011;2376;53.544;10.226;2023-07-22T09:16:55;2.00;;;1.80;;
4724;SDS011;2376;53.544;10.226;2023-07-22T09:19:23;1.53;;;1.43;;
4724;SDS011;2376;53.544;10.226;2023-07-22T09:21:50;1.73;;;1.63;;
4724;SDS011;2376;53.544;10.226;2023-07-22T09:24:22;1.60;;;1.50;;
4724;SDS011;2376;53.544;10.226;2023-07-22T09:26:50;1.30;;;1.17;;
4724;SDS011;2376;53.544;10.226;2023-07-22T09:29:17;2.10;;;1.47;;
4724;SDS011;2376;53.544;10.226;2023-07-22T09:31:53;1.30;;;1.20;;
4724;SDS011;2376;53.544;10.226;2023-07-22T09:34:20;2.00;;;1.40;;
4724;SDS011;2376;53.544;10.226;2023-07-22T09:36:51;1.30;;;1.20;;
4724;SDS011;2376;53.544;10.226;2023-07-22T09:39:18;4.90;;;1.73;;
4724;SDS011;2376;53.544;10.226;2023-07-22T09:41:46;2.03;;;1.47;;
4724;SDS011;2376;53.544;10.226;2023-07-22T09:44:13;1.10;;;1.10;;
4724;SDS011;2376;53.544;10.226;2023-07-22T09:46:40;1.50;;;1.40;;
4724;SDS011;2376;53.544;10.226;2023-07-22T09:49:08;2.63;;;1.50;;
4724;SDS011;2376;53.544;10.226;2023-07-22T09:51:35;3.77;;;1.50;;
4724;SDS011;2376;53.544;10.226;2023-07-22T09:54:04;1.30;;;1.10;;
4724;SDS011;2376;53.544;10.226;2023-07-22T09:56:32;2.23;;;1.33;;
4724;SDS011;2376;53.544;10.226;2023-07-22T09:59:10;1.30;;;1.20;;
4724;SDS011;2376;53.544;10.226;2023-07-22T10:01:38;1.37;;;1.27;;
4724;SDS011;2376;53.544;10.226;2023-07-22T10:04:06;1.60;;;1.40;;
4724;SDS011;2376;53.544;10.226;2023-07-22T10:06:34;1.40;;;1.30;;
4724;SDS011;2376;53.544;10.226;2023-07-22T10:09:02;1.40;;;1.30;;
4724;SDS011;2376;53.544;10.226;2023-07-22T10:11:32;2.17;;;1.40;;
4724;SDS011;2376;53.544;10.226;2023-07-22T10:14:00;4.67;;;1.57;;
4724;SDS011;2376;53.544;10.226;2023-07-22T10:16:29;2.07;;;1.70;;
4724;SDS011;2376;53.544;10.226;2023-07-22T10:18:56;1.83;;;1.73;;
4724;SDS011;2376;53.544;10.226;2023-07-22T10:21:25;1.40;;;1.30;;
4724;SDS011;2376;53.544;10.226;2023-07-22T10:23:54;2.90;;;1.80;;
4724;SDS011;2376;53.544;10.226;2023-07-22T10:26:22;1.60;;;1.50;;
4724;SDS011;2376;53.544;10.226;2023-07-22T10:28:48;1.97;;;1.37;;
4724;SDS011;2376;53.544;10.226;2023-07-22T10:31:15;1.97;;;1.50;;
4724;SDS011;2376;53.544;10.226;2023-07-22T10:33:45;2.80;;;1.70;;
4724;SDS011;2376;53.544;10.226;2023-07-22T10:36:13;2.17;;;1.83;;
4724;SDS011;2376;53.544;10.226;2023-07-22T10:38:41;3.17;;;2.10;;
4724;SDS011;2376;53.544;10.226;2023-07-22T10:41:11;1.60;;;1.50;;
4724;SDS011;2376;53.544;10.226;2023-07-22T10:43:39;2.60;;;1.80;;
4724;SDS011;2376;53.544;10.226;2023-07-22T10:46:07;2.23;;;1.70;;
4724;SDS011;2376;53.544;10.226;2023-07-22T10:48:37;1.90;;;1.80;;
4724;SDS011;2376;53.544;10.226;2023-07-22T10:51:09;3.50;;;1.43;;
4724;SDS011;2376;53.544;10.226;2023-07-22T10:53:40;2.27;;;1.60;;
4724;SDS011;2376;53.544;10.226;2023-07-22T10:56:14;1.50;;;1.40;;
4724;SDS011;2376;53.544;10.226;2023-07-22T10:58:57;1.50;;;1.40;;
4724;SDS011;2376;53.544;10.226;2023-07-22T11:01:32;1.37;;;1.27;;
4724;SDS011;2376;53.544;10.226;2023-07-22T11:04:11;1.43;;;1.33;;
4724;SDS011;2376;53.544;10.226;2023-07-22T11:06:51;2.20;;;1.30;;
4724;SDS011;2376;53.544;10.226;2023-07-22T11:09:35;1.57;;;1.47;;
4724;SDS011;2376;53.544;10.226;2023-07-22T11:12:03;1.40;;;1.30;;
4724;SDS011;2376;53.544;10.226;2023-07-22T11:14:32;1.50;;;1.40;;
4724;SDS011;2376;53.544;10.226;2023-07-22T11:17:01;2.30;;;2.10;;
4724;SDS011;2376;53.544;10.226;2023-07-22T11:19:30;1.60;;;1.50;;
4724;SDS011;2376;53.544;10.226;2023-07-22T11:21:58;1.70;;;1.60;;
4724;SDS011;2376;53.544;10.226;2023-07-22T11:24:26;1.70;;;1.60;;
4724;SDS011;2376;53.544;10.226;2023-07-22T11:26:53;2.53;;;2.33;;
4724;SDS011;2376;53.544;10.226;2023-07-22T11:29:20;2.67;;;2.43;;
4724;SDS011;2376;53.544;10.226;2023-07-22T11:31:48;2.20;;;2.10;;
4724;SDS011;2376;53.544;10.226;2023-07-22T11:34:16;3.30;;;2.40;;
4724;SDS011;2376;53.544;10.226;2023-07-22T11:36:44;2.13;;;2.03;;
4724;SDS011;2376;53.544;10.226;2023-07-22T11:39:14;2.30;;;2.10;;
4724;SDS011;2376;53.544;10.226;2023-07-22T11:41:42;2.23;;;2.13;;
4724;SDS011;2376;53.544;10.226;2023-07-22T11:44:10;3.10;;;2.80;;
4724;SDS011;2376;53.544;10.226;2023-07-22T11:46:46;2.53;;;2.33;;
4724;SDS011;2376;53.544;10.226;2023-07-22T11:49:15;2.50;;;2.30;;
4724;SDS011;2376;53.544;10.226;2023-07-22T11:51:48;2.70;;;2.50;;
4724;SDS011;2376;53.544;10.226;2023-07-22T11:54:16;3.33;;;2.00;;
4724;SDS011;2376;53.544;10.226;2023-07-22T11:56:43;2.17;;;1.97;;
4724;SDS011;2376;53.544;10.226;2023-07-22T11:59:09;2.87;;;2.67;;
4724;SDS011;2376;53.544;10.226;2023-07-22T12:01:36;2.80;;;2.60;;
4724;SDS011;2376;53.544;10.226;2023-07-22T12:04:03;3.00;;;2.67;;
4724;SDS011;2376;53.544;10.226;2023-07-22T12:06:36;3.27;;;2.87;;
4724;SDS011;2376;53.544;10.226;2023-07-22T12:09:03;2.73;;;2.53;;
4724;SDS011;2376;53.544;10.226;2023-07-22T12:11:32;2.40;;;2.30;;
4724;SDS011;2376;53.544;10.226;2023-07-22T12:14:09;2.30;;;2.10;;
4724;SDS011;2376;53.544;10.226;2023-07-22T12:16:38;2.60;;;2.40;;
4724;SDS011;2376;53.544;10.226;2023-07-22T12:19:06;2.60;;;2.40;;
4724;SDS011;2376;53.544;10.226;2023-07-22T12:21:34;3.60;;;3.30;;
4724;SDS011;2376;53.544;10.226;2023-07-22T12:24:01;2.80;;;2.60;;
4724;SDS011;2376;53.544;10.226;2023-07-22T12:26:29;3.10;;;2.80;;
4724;SDS011;2376;53.544;10.226;2023-07-22T12:28:57;3.10;;;2.90;;
4724;SDS011;2376;53.544;10.226;2023-07-22T12:31:24;5.00;;;2.63;;
4724;SDS011;2376;53.544;10.226;2023-07-22T12:33:51;3.20;;;2.90;;
4724;SDS011;2376;53.544;10.226;2023-07-22T12:36:17;3.07;;;2.77;;
4724;SDS011;2376;53.544;10.226;2023-07-22T12:38:44;3.83;;;3.30;;
4724;SDS011;2376;53.544;10.226;2023-07-22T12:41:11;3.23;;;3.03;;
4724;SDS011;2376;53.544;10.226;2023-07-22T12:43:37;3.27;;;2.97;;
4724;SDS011;2376;53.544;10.226;2023-07-22T12:46:05;5.23;;;3.60;;
4724;SDS011;2376;53.544;10.226;2023-07-22T12:48:32;3.70;;;3.40;;
4724;SDS011;2376;53.544;10.226;2023-07-22T12:50:59;3.27;;;3.07;;
4724;SDS011;2376;53.544;10.226;2023-07-22T12:53:26;3.70;;;3.40;;
4724;SDS011;2376;53.544;10.226;2023-07-22T12:55:53;4.20;;;3.43;;
4724;SDS011;2376;53.544;10.226;2023-07-22T12:58:20;3.93;;;3.53;;
4724;SDS011;2376;53.544;10.226;2023-07-22T13:00:47;4.30;;;3.67;;
4724;SDS011;2376;53.544;10.226;2023-07-22T13:03:15;4.07;;;3.67;;
4724;SDS011;2376;53.544;10.226;2023-07-22T13:05:41;3.70;;;3.40;;
4724;SDS011;2376;53.544;10.226;2023-07-22T13:08:08;4.73;;;3.50;;
4724;SDS011;2376;53.544;10.226;2023-07-22T13:10:35;4.03;;;3.77;;
4724;SDS011;2376;53.544;10.226;2023-07-22T13:13:03;4.70;;;4.20;;
4724;SDS011;2376;53.544;10.226;2023-07-22T13:15:30;4.80;;;4.10;;
4724;SDS011;2376;53.544;10.226;2023-07-22T13:17:57;4.87;;;4.47;;
4724;SDS011;2376;53.544;10.226;2023-07-22T13:20:25;7.57;;;4.63;;
4724;SDS011;2376;53.544;10.226;2023-07-22T13:22:51;4.77;;;4.33;;
4724;SDS011;2376;53.544;10.226;2023-07-22T13:25:18;4.77;;;4.17;;
4724;SDS011;2376;53.544;10.226;2023-07-22T13:27:45;4.80;;;4.40;;
4724;SDS011;2376;53.544;10.226;2023-07-22T13:30:12;5.13;;;4.63;;
4724;SDS011;2376;53.544;10.226;2023-07-22T13:32:38;4.70;;;4.20;;
4724;SDS011;2376;53.544;10.226;2023-07-22T13:35:05;4.50;;;4.20;;
4724;SDS011;2376;53.544;10.226;2023-07-22T13:37:34;5.80;;;5.30;;
4724;SDS011;2376;53.544;10.226;2023-07-22T13:40:00;4.73;;;4.33;;
4724;SDS011;2376;53.544;10.226;2023-07-22T13:42:29;4.23;;;3.83;;
4724;SDS011;2376;53.544;10.226;2023-07-22T13:44:56;4.23;;;3.83;;
4724;SDS011;2376;53.544;10.226;2023-07-22T13:47:23;5.77;;;5.27;;
4724;SDS011;2376;53.544;10.226;2023-07-22T13:49:49;5.40;;;5.00;;
4724;SDS011;2376;53.544;10.226;2023-07-22T13:52:16;5.87;;;5.33;;
4724;SDS011;2376;53.544;10.226;2023-07-22T13:54:44;5.60;;;4.90;;
4724;SDS011;2376;53.544;10.226;2023-07-22T13:57:11;5.40;;;4.90;;
4724;SDS011;2376;53.544;10.226;2023-07-22T13:59:38;6.70;;;5.17;;
4724;SDS011;2376;53.544;10.226;2023-07-22T14:02:05;8.87;;;5.93;;
4724;SDS011;2376;53.544;10.226;2023-07-22T14:04:32;6.67;;;6.17;;
4724;SDS011;2376;53.544;10.226;2023-07-22T14:06:58;9.50;;;6.03;;
4724;SDS011;2376;53.544;10.226;2023-07-22T14:09:25;6.20;;;5.70;;
4724;SDS011;2376;53.544;10.226;2023-07-22T14:11:53;6.53;;;5.80;;
4724;SDS011;2376;53.544;10.226;2023-07-22T14:14:20;10.30;;;6.70;;
4724;SDS011;2376;53.544;10.226;2023-07-22T14:16:53;7.20;;;5.63;;
4724;SDS011;2376;53.544;10.226;2023-07-22T14:19:20;5.70;;;5.20;;
4724;SDS011;2376;53.544;10.226;2023-07-22T14:21:46;5.47;;;4.97;;
4724;SDS011;2376;53.544;10.226;2023-07-22T14:24:13;7.30;;;6.60;;
4724;SDS011;2376;53.544;10.226;2023-07-22T14:26:40;7.10;;;6.13;;
4724;SDS011;2376;53.544;10.226;2023-07-22T14:29:08;5.97;;;5.37;;
4724;SDS011;2376;53.544;10.226;2023-07-22T14:31:34;5.80;;;5.20;;
4724;SDS011;2376;53.544;10.226;2023-07-22T14:34:01;6.93;;;6.23;;
4724;SDS011;2376;53.544;10.226;2023-07-22T14:36:28;6.27;;;5.67;;
4724;SDS011;2376;53.544;10.226;2023-07-22T14:38:54;6.43;;;5.90;;
4724;SDS011;2376;53.544;10.226;2023-07-22T14:41:22;7.17;;;5.90;;
4724;SDS011;2376;53.544;10.226;2023-07-22T14:43:49;5.53;;;5.03;;
4724;SDS011;2376;53.544;10.226;2023-07-22T14:46:17;7.37;;;5.33;;
4724;SDS011;2376;53.544;10.226;2023-07-22T14:48:44;6.07;;;5.40;;
4724;SDS011;2376;53.544;10.226;2023-07-22T14:51:11;5.33;;;4.87;;
4724;SDS011;2376;53.544;10.226;2023-07-22T14:53:37;5.70;;;5.10;;
4724;SDS011;2376;53.544;10.226;2023-07-22T14:56:04;6.17;;;5.63;;
4724;SDS011;2376;53.544;10.226;2023-07-22T14:58:32;6.87;;;5.80;;
4724;SDS011;2376;53.544;10.226;2023-07-22T15:00:58;5.90;;;4.80;;
4724;SDS011;2376;53.544;10.226;2023-07-22T15:03:27;4.53;;;4.23;;